createdAt,value
2019-05-02T00:03:04.431Z,6.60
2019-05-02T00:08:10.620Z,5.90
2019-05-02T00:13:14.731Z,6.47
2019-05-02T00:18:18.847Z,6.93
2019-05-02T00:23:23.072Z,6.23
2019-05-02T00:28:32.147Z,5.80
2019-05-02T00:33:37.527Z,6.23
2019-05-02T00:38:45.623Z,5.73
2019-05-02T00:43:51.996Z,6.63
2019-05-02T00:48:59.686Z,6.23
2019-05-02T00:54:04.229Z,6.60
2019-05-02T00:59:09.482Z,6.40
2019-05-02T01:04:23.444Z,7.33
2019-05-02T01:09:28.695Z,6.90
2019-05-02T01:14:33.330Z,6.43
2019-05-02T01:19:36.974Z,6.40
2019-05-02T01:24:43.667Z,6.97
2019-05-02T01:30:01.569Z,6.93
2019-05-02T01:35:11.151Z,6.20
2019-05-02T01:40:17.701Z,6.57
2019-05-02T01:45:20.404Z,6.63
2019-05-02T01:50:33.528Z,7.20
2019-05-02T01:55:35.777Z,7.47
2019-05-02T02:00:44.844Z,7.20
2019-05-02T02:05:47.976Z,7.23
2019-05-02T02:10:56.201Z,6.87
2019-05-02T02:16:04.074Z,7.10
2019-05-02T02:21:26.149Z,7.40
2019-05-02T02:26:28.202Z,7.43
2019-05-02T02:31:45.996Z,8.10
2019-05-02T02:36:44.663Z,7.63
2019-05-02T02:41:52.110Z,8.20
2019-05-02T02:46:54.914Z,6.93
2019-05-02T02:52:04.728Z,8.07
2019-05-02T02:57:20.855Z,8.97
2019-05-02T03:02:17.503Z,8.80
2019-05-02T03:07:25.999Z,8.63
2019-05-02T03:12:28.134Z,9.13
2019-05-02T03:17:46.677Z,8.10
2019-05-02T03:22:54.786Z,7.90
2019-05-02T03:28:00.203Z,7.80
2019-05-02T03:33:10.434Z,8.20
2019-05-02T03:38:10.077Z,8.83
2019-05-02T03:43:19.277Z,9.37
2019-05-02T03:48:25.341Z,8.30
2019-05-02T03:53:31.339Z,8.93
2019-05-02T03:58:35.185Z,8.50
2019-05-02T04:03:46.433Z,8.70
2019-05-02T04:08:58.848Z,8.80
2019-05-02T04:13:58.508Z,9.40
2019-05-02T04:19:02.904Z,9.83
2019-05-02T04:24:13.276Z,10.40
2019-05-02T04:29:24.548Z,7.90
2019-05-02T04:34:28.447Z,8.20
2019-05-02T04:39:34.828Z,10.20
2019-05-02T04:45:11.818Z,8.90
2019-05-02T04:49:58.559Z,9.30
2019-05-02T04:55:14.393Z,9.83
2019-05-02T05:00:11.767Z,12.50
2019-05-02T05:05:17.322Z,15.67
2019-05-02T05:10:20.147Z,15.80
2019-05-02T05:15:39.161Z,14.27
2019-05-02T05:20:40.528Z,12.37
2019-05-02T05:25:50.804Z,12.93
2019-05-02T05:30:54.077Z,11.80
2019-05-02T05:35:59.338Z,12.60
2019-05-02T05:41:07.822Z,11.70
2019-05-02T05:46:12.392Z,13.20
2019-05-02T05:51:20.440Z,12.40
2019-05-02T05:56:21.417Z,11.90
2019-05-02T06:01:26.011Z,12.60
2019-05-02T06:06:30.427Z,11.87
2019-05-02T06:11:34.137Z,11.97
2019-05-02T06:16:37.864Z,11.27
2019-05-02T06:21:45.093Z,11.30
2019-05-02T06:26:49.946Z,11.30
2019-05-02T06:32:03.018Z,12.80
2019-05-02T06:37:13.429Z,13.73
2019-05-02T06:42:27.668Z,14.87
2019-05-02T06:47:36.059Z,12.50
2019-05-02T06:52:39.483Z,11.80
2019-05-02T06:57:43.150Z,10.70
2019-05-02T07:02:49.512Z,10.03
2019-05-02T07:07:56.378Z,10.07
2019-05-02T07:13:10.716Z,10.37
2019-05-02T07:18:15.173Z,9.90
2019-05-02T07:23:24.656Z,9.20
2019-05-02T07:28:28.332Z,10.33
2019-05-02T07:33:37.505Z,9.83
2019-05-02T07:38:37.970Z,9.10
2019-05-02T07:43:47.174Z,9.77
2019-05-02T07:48:54.569Z,10.93
2019-05-02T07:54:02.334Z,9.80
2019-05-02T07:59:07.951Z,10.47
2019-05-02T08:04:14.195Z,13.00
2019-05-02T08:09:24.366Z,12.70
2019-05-02T08:14:34.589Z,12.47
2019-05-02T08:19:41.908Z,12.17
2019-05-02T08:24:46.370Z,11.07
2019-05-02T08:29:51.919Z,11.87
2019-05-02T08:34:58.238Z,11.00
2019-05-02T08:40:05.401Z,11.00
2019-05-02T08:45:10.462Z,9.70
2019-05-02T08:50:14.433Z,9.97
2019-05-02T08:55:18.064Z,10.00
2019-05-02T09:00:21.756Z,10.80
2019-05-02T09:05:29.888Z,11.47
2019-05-02T09:10:42.187Z,11.03
2019-05-02T09:15:53.599Z,11.00
2019-05-02T09:20:56.931Z,10.90
2019-05-02T09:26:02.427Z,10.40
2019-05-02T09:31:09.168Z,10.43
2019-05-02T09:36:14.590Z,9.93
2019-05-02T09:41:26.990Z,11.03
2019-05-02T09:46:28.339Z,11.30
2019-05-02T09:51:32.444Z,11.00
2019-05-02T09:56:36.263Z,10.87
2019-05-02T10:01:46.675Z,11.90
2019-05-02T10:06:52.270Z,11.10
2019-05-02T10:11:58.889Z,10.87
2019-05-02T10:17:06.934Z,11.00
2019-05-02T10:22:12.285Z,10.27
2019-05-02T10:27:17.747Z,10.90
2019-05-02T10:32:24.140Z,10.00
2019-05-02T10:37:38.106Z,11.70
2019-05-02T10:42:38.735Z,11.00
2019-05-02T10:47:44.718Z,11.57
2019-05-02T10:52:50.045Z,10.80
2019-05-02T10:57:53.657Z,9.67
2019-05-02T11:03:13.839Z,9.80
2019-05-02T11:08:31.937Z,8.03
2019-05-02T11:13:39.154Z,10.50
2019-05-02T11:18:56.050Z,7.70
2019-05-02T11:24:02.730Z,7.00
2019-05-02T11:29:06.528Z,8.40
2019-05-02T11:34:12.169Z,6.90
2019-05-02T11:39:31.167Z,7.53
2019-05-02T11:44:26.545Z,5.90
2019-05-02T11:49:31.998Z,5.20
2019-05-02T11:54:39.291Z,5.87
2019-05-02T11:59:44.542Z,7.07
2019-05-02T12:04:55.505Z,5.70
2019-05-02T12:10:04.105Z,6.43
2019-05-02T12:15:04.161Z,5.17
2019-05-02T12:20:11.756Z,4.77
2019-05-02T12:25:15.750Z,5.43
2019-05-02T12:30:28.941Z,4.63
2019-05-02T12:35:34.131Z,4.87
2019-05-02T12:40:37.780Z,5.20
2019-05-02T12:45:46.146Z,5.20
2019-05-02T12:50:55.516Z,4.60
2019-05-02T12:56:02.185Z,5.57
2019-05-02T13:01:06.082Z,4.87
2019-05-02T13:06:15.741Z,4.70
2019-05-02T13:11:36.782Z,4.70
2019-05-02T13:16:42.896Z,5.03
2019-05-02T13:22:04.083Z,4.43
2019-05-02T13:27:15.186Z,4.70
2019-05-02T13:32:21.771Z,4.53
2019-05-02T13:37:25.654Z,4.53
2019-05-02T13:42:29.360Z,5.00
2019-05-02T13:47:37.059Z,6.70
2019-05-02T13:52:55.037Z,7.60
2019-05-02T13:57:57.878Z,6.20
2019-05-02T14:03:02.882Z,9.37
2019-05-02T14:08:30.621Z,11.20
2019-05-02T14:13:31.844Z,10.80
2019-05-02T14:18:35.485Z,13.00
2019-05-02T14:23:42.094Z,10.60
2019-05-02T14:28:49.966Z,10.60
2019-05-02T14:34:12.234Z,10.43
2019-05-02T14:39:19.959Z,8.83
2019-05-02T14:44:59.817Z,8.30
2019-05-02T14:49:34.683Z,8.20
2019-05-02T14:54:43.746Z,8.60
2019-05-02T14:59:45.274Z,7.30
2019-05-02T15:04:49.865Z,7.50
2019-05-02T15:09:57.207Z,7.47
2019-05-02T15:15:02.513Z,7.00
2019-05-02T15:20:08.195Z,7.27
2019-05-02T15:25:17.784Z,6.60
2019-05-02T15:30:47.774Z,7.10
2019-05-02T15:35:47.273Z,6.40
2019-05-02T15:40:53.003Z,5.60
2019-05-02T15:45:56.552Z,6.10
2019-05-02T15:51:05.146Z,5.23
2019-05-02T15:56:15.677Z,4.20
2019-05-02T16:01:32.164Z,4.47
2019-05-02T16:06:35.916Z,5.10
2019-05-02T16:11:39.712Z,6.60
2019-05-02T16:16:45.371Z,5.60
2019-05-02T16:22:09.016Z,5.47
2019-05-02T16:27:16.354Z,5.00
2019-05-02T16:32:22.315Z,4.60
2019-05-02T16:37:26.107Z,5.17
2019-05-02T16:42:32.834Z,4.30
2019-05-02T16:47:38.202Z,4.40
2019-05-02T16:52:43.768Z,4.90
2019-05-02T16:57:51.895Z,4.97
2019-05-02T17:03:03.640Z,5.00
2019-05-02T17:08:26.788Z,5.70
2019-05-02T17:13:35.858Z,6.10
2019-05-02T17:18:38.523Z,6.80
2019-05-02T17:23:49.837Z,6.43
2019-05-02T17:28:47.664Z,6.67
2019-05-02T17:33:57.405Z,7.20
2019-05-02T17:39:06.752Z,6.90
2019-05-02T17:44:08.208Z,7.57
2019-05-02T17:49:14.854Z,7.10
2019-05-02T17:54:22.748Z,7.63
2019-05-02T17:59:28.229Z,7.43
2019-05-02T18:04:39.176Z,7.23
2019-05-02T18:09:42.798Z,8.13
2019-05-02T18:14:53.110Z,8.37
2019-05-02T18:19:56.694Z,8.03
2019-05-02T18:25:06.454Z,7.53
2019-05-02T18:30:12.735Z,8.17
2019-05-02T18:35:17.322Z,8.80
2019-05-02T18:40:27.715Z,7.80
2019-05-02T18:45:28.858Z,7.60
2019-05-02T18:50:36.769Z,7.90
2019-05-02T18:55:43.185Z,8.83
2019-05-02T19:00:46.925Z,7.90
2019-05-02T19:05:51.493Z,8.30
2019-05-02T19:11:05.920Z,9.27
2019-05-02T19:16:01.993Z,7.40
2019-05-02T19:21:06.381Z,4.23
2019-05-02T19:26:12.489Z,3.27
2019-05-02T19:31:15.578Z,2.90
2019-05-02T19:36:27.458Z,2.40
2019-05-02T19:41:29.287Z,2.50
2019-05-02T19:46:38.496Z,1.90
2019-05-02T19:51:39.909Z,2.10
2019-05-02T19:56:47.468Z,2.27
2019-05-02T20:01:52.189Z,2.10
2019-05-02T20:06:58.409Z,1.60
2019-05-02T20:12:06.056Z,2.03
2019-05-02T20:17:14.944Z,2.10
2019-05-02T20:22:19.397Z,2.23
2019-05-02T20:27:28.221Z,2.50
2019-05-02T20:32:32.277Z,2.67
2019-05-02T20:37:36.056Z,2.60
2019-05-02T20:42:41.780Z,2.97
2019-05-02T20:47:55.392Z,2.50
2019-05-02T20:52:59.104Z,2.53
2019-05-02T20:58:02.764Z,2.20
2019-05-02T21:03:09.119Z,2.80
2019-05-02T21:08:32.480Z,2.40
2019-05-02T21:13:36.011Z,2.70
2019-05-02T21:18:42.246Z,2.80
2019-05-02T21:23:48.498Z,4.00
2019-05-02T21:28:54.823Z,2.77
2019-05-02T21:34:02.595Z,2.30
2019-05-02T21:39:09.337Z,2.57
2019-05-02T21:44:13.287Z,3.20
2019-05-02T21:49:18.794Z,2.97
2019-05-02T21:54:26.844Z,3.10
2019-05-02T21:59:36.177Z,3.40
2019-05-02T22:04:47.497Z,3.97
2019-05-02T22:09:52.422Z,4.13
2019-05-02T22:14:56.074Z,4.00
2019-05-02T22:20:01.685Z,3.87
2019-05-02T22:25:15.779Z,4.10
2019-05-02T22:30:15.260Z,4.80
2019-05-02T22:35:19.227Z,4.63
2019-05-02T22:40:24.463Z,4.90
2019-05-02T22:45:28.200Z,5.20
2019-05-02T22:50:41.867Z,6.40
2019-05-02T22:55:45.728Z,7.90
2019-05-02T23:00:52.260Z,7.80
2019-05-02T23:06:01.789Z,8.33
2019-05-02T23:11:05.545Z,9.10
2019-05-02T23:16:09.264Z,9.80
2019-05-02T23:21:15.800Z,8.83
2019-05-02T23:26:31.684Z,9.33
2019-05-02T23:31:36.852Z,8.93
2019-05-02T23:36:42.071Z,8.13
2019-05-02T23:41:45.741Z,8.10
2019-05-02T23:46:52.082Z,6.63
2019-05-02T23:51:55.705Z,6.40
2019-05-02T23:56:59.345Z,6.20
